sensor_id;sensor_type;location;lat;lon;timestamp;P1;durP1;ratioP1;P2;durP2;ratioP2
43086;SDS011;28708;52.224;6.924;2023-05-29T00:02:07;17.47;;;3.47;;
43086;SDS011;28708;52.224;6.924;2023-05-29T00:04:33;24.53;;;4.10;;
43086;SDS011;28708;52.224;6.924;2023-05-29T00:06:58;23.87;;;4.33;;
43086;SDS011;28708;52.224;6.924;2023-05-29T00:09:24;20.00;;;3.73;;
43086;SDS011;28708;52.224;6.924;2023-05-29T00:11:50;23.73;;;4.30;;
43086;SDS011;28708;52.224;6.924;2023-05-29T00:14:20;17.37;;;3.17;;
43086;SDS011;28708;52.224;6.924;2023-05-29T00:16:47;16.00;;;3.67;;
43086;SDS011;28708;52.224;6.924;2023-05-29T00:19:14;21.90;;;3.73;;
43086;SDS011;28708;52.224;6.924;2023-05-29T00:21:44;18.40;;;3.53;;
43086;SDS011;28708;52.224;6.924;2023-05-29T00:24:13;18.50;;;3.90;;
43086;SDS011;28708;52.224;6.924;2023-05-29T00:26:40;23.07;;;4.27;;
43086;SDS011;28708;52.224;6.924;2023-05-29T00:29:06;20.07;;;3.80;;
43086;SDS011;28708;52.224;6.924;2023-05-29T00:31:32;19.70;;;3.97;;
43086;SDS011;28708;52.224;6.924;2023-05-29T00:33:58;17.23;;;3.20;;
43086;SDS011;28708;52.224;6.924;2023-05-29T00:36:23;19.50;;;3.83;;
43086;SDS011;28708;52.224;6.924;2023-05-29T00:38:50;20.30;;;3.67;;
43086;SDS011;28708;52.224;6.924;2023-05-29T00:41:16;17.93;;;3.97;;
43086;SDS011;28708;52.224;6.924;2023-05-29T00:43:42;22.30;;;4.13;;
43086;SDS011;28708;52.224;6.924;2023-05-29T00:46:09;20.23;;;3.97;;
43086;SDS011;28708;52.224;6.924;2023-05-29T00:48:37;22.15;;;3.72;;
43086;SDS011;28708;52.224;6.924;2023-05-29T00:51:03;18.40;;;3.43;;
43086;SDS011;28708;52.224;6.924;2023-05-29T00:53:29;18.73;;;3.27;;
43086;SDS011;28708;52.224;6.924;2023-05-29T00:55:55;23.33;;;3.97;;
43086;SDS011;28708;52.224;6.924;2023-05-29T00:58:21;22.97;;;4.50;;
43086;SDS011;28708;52.224;6.924;2023-05-29T01:00:46;19.03;;;4.03;;
43086;SDS011;28708;52.224;6.924;2023-05-29T01:03:12;25.33;;;4.03;;
43086;SDS011;28708;52.224;6.924;2023-05-29T01:05:43;24.20;;;3.63;;
43086;SDS011;28708;52.224;6.924;2023-05-29T01:08:10;22.57;;;3.63;;
43086;SDS011;28708;52.224;6.924;2023-05-29T01:10:36;23.10;;;3.87;;
43086;SDS011;28708;52.224;6.924;2023-05-29T01:13:06;23.10;;;3.27;;
43086;SDS011;28708;52.224;6.924;2023-05-29T01:18:47;19.43;;;3.73;;
43086;SDS011;28708;52.224;6.924;2023-05-29T01:21:31;22.13;;;3.90;;
43086;SDS011;28708;52.224;6.924;2023-05-29T01:27:09;24.00;;;3.97;;
43086;SDS011;28708;52.224;6.924;2023-05-29T01:29:37;18.53;;;3.30;;
43086;SDS011;28708;52.224;6.924;2023-05-29T01:32:07;22.20;;;3.80;;
43086;SDS011;28708;52.224;6.924;2023-05-29T01:34:33;23.33;;;4.80;;
43086;SDS011;28708;52.224;6.924;2023-05-29T01:36:59;21.90;;;4.47;;
43086;SDS011;28708;52.224;6.924;2023-05-29T01:39:24;16.90;;;4.43;;
43086;SDS011;28708;52.224;6.924;2023-05-29T01:41:51;27.33;;;4.23;;
43086;SDS011;28708;52.224;6.924;2023-05-29T01:44:17;22.43;;;4.43;;
43086;SDS011;28708;52.224;6.924;2023-05-29T01:46:46;17.90;;;3.83;;
43086;SDS011;28708;52.224;6.924;2023-05-29T01:49:12;22.20;;;4.00;;
43086;SDS011;28708;52.224;6.924;2023-05-29T01:51:41;26.70;;;4.93;;
43086;SDS011;28708;52.224;6.924;2023-05-29T01:54:08;23.27;;;4.70;;
43086;SDS011;28708;52.224;6.924;2023-05-29T01:56:34;25.80;;;4.20;;
43086;SDS011;28708;52.224;6.924;2023-05-29T01:59:01;21.10;;;4.23;;
43086;SDS011;28708;52.224;6.924;2023-05-29T02:01:29;20.83;;;3.97;;
43086;SDS011;28708;52.224;6.924;2023-05-29T02:03:56;28.67;;;4.30;;
43086;SDS011;28708;52.224;6.924;2023-05-29T02:06:21;17.30;;;3.97;;
43086;SDS011;28708;52.224;6.924;2023-05-29T02:08:47;18.73;;;4.10;;
43086;SDS011;28708;52.224;6.924;2023-05-29T02:11:12;26.13;;;4.13;;
43086;SDS011;28708;52.224;6.924;2023-05-29T02:13:38;27.03;;;3.87;;
43086;SDS011;28708;52.224;6.924;2023-05-29T02:16:04;23.80;;;3.47;;
43086;SDS011;28708;52.224;6.924;2023-05-29T02:18:30;21.70;;;4.10;;
43086;SDS011;28708;52.224;6.924;2023-05-29T02:20:56;23.70;;;4.07;;
43086;SDS011;28708;52.224;6.924;2023-05-29T02:23:22;24.93;;;4.33;;
43086;SDS011;28708;52.224;6.924;2023-05-29T02:25:50;23.20;;;4.10;;
43086;SDS011;28708;52.224;6.924;2023-05-29T02:28:15;22.30;;;3.53;;
43086;SDS011;28708;52.224;6.924;2023-05-29T02:30:41;25.13;;;4.03;;
43086;SDS011;28708;52.224;6.924;2023-05-29T02:33:08;25.47;;;4.40;;
43086;SDS011;28708;52.224;6.924;2023-05-29T02:35:33;26.47;;;4.30;;
43086;SDS011;28708;52.224;6.924;2023-05-29T02:37:59;20.37;;;3.47;;
43086;SDS011;28708;52.224;6.924;2023-05-29T02:40:25;26.97;;;4.53;;
43086;SDS011;28708;52.224;6.924;2023-05-29T02:42:51;23.13;;;3.67;;
43086;SDS011;28708;52.224;6.924;2023-05-29T02:45:17;20.33;;;3.23;;
43086;SDS011;28708;52.224;6.924;2023-05-29T02:47:42;22.20;;;3.77;;
43086;SDS011;28708;52.224;6.924;2023-05-29T02:50:08;27.70;;;5.20;;
43086;SDS011;28708;52.224;6.924;2023-05-29T02:52:35;24.50;;;4.43;;
43086;SDS011;28708;52.224;6.924;2023-05-29T02:55:05;21.97;;;4.10;;
43086;SDS011;28708;52.224;6.924;2023-05-29T02:57:31;16.90;;;3.90;;
43086;SDS011;28708;52.224;6.924;2023-05-29T02:59:57;22.63;;;4.30;;
43086;SDS011;28708;52.224;6.924;2023-05-29T03:02:23;22.40;;;4.03;;
43086;SDS011;28708;52.224;6.924;2023-05-29T03:04:50;24.07;;;4.47;;
43086;SDS011;28708;52.224;6.924;2023-05-29T03:07:17;21.77;;;3.63;;
43086;SDS011;28708;52.224;6.924;2023-05-29T03:09:43;25.20;;;4.70;;
43086;SDS011;28708;52.224;6.924;2023-05-29T03:12:09;23.83;;;3.67;;
43086;SDS011;28708;52.224;6.924;2023-05-29T03:14:36;33.83;;;5.10;;
43086;SDS011;28708;52.224;6.924;2023-05-29T03:17:05;18.13;;;3.53;;
43086;SDS011;28708;52.224;6.924;2023-05-29T03:19:32;20.33;;;3.37;;
43086;SDS011;28708;52.224;6.924;2023-05-29T03:21:58;21.40;;;4.10;;
43086;SDS011;28708;52.224;6.924;2023-05-29T03:24:24;21.63;;;3.33;;
43086;SDS011;28708;52.224;6.924;2023-05-29T03:26:50;20.40;;;4.23;;
43086;SDS011;28708;52.224;6.924;2023-05-29T03:29:17;19.53;;;3.77;;
43086;SDS011;28708;52.224;6.924;2023-05-29T03:31:43;28.30;;;4.17;;
43086;SDS011;28708;52.224;6.924;2023-05-29T03:34:11;21.17;;;3.70;;
43086;SDS011;28708;52.224;6.924;2023-05-29T03:36:48;21.87;;;3.83;;
43086;SDS011;28708;52.224;6.924;2023-05-29T03:39:14;28.83;;;4.17;;
43086;SDS011;28708;52.224;6.924;2023-05-29T03:41:40;25.63;;;4.27;;
43086;SDS011;28708;52.224;6.924;2023-05-29T03:44:06;16.90;;;3.47;;
43086;SDS011;28708;52.224;6.924;2023-05-29T03:46:32;26.03;;;4.63;;
43086;SDS011;28708;52.224;6.924;2023-05-29T03:48:58;17.23;;;3.00;;
43086;SDS011;28708;52.224;6.924;2023-05-29T03:51:24;21.63;;;4.20;;
43086;SDS011;28708;52.224;6.924;2023-05-29T03:53:52;29.87;;;4.13;;
43086;SDS011;28708;52.224;6.924;2023-05-29T03:56:18;28.47;;;4.10;;
43086;SDS011;28708;52.224;6.924;2023-05-29T03:58:45;18.13;;;3.70;;
43086;SDS011;28708;52.224;6.924;2023-05-29T04:01:11;28.90;;;4.60;;
43086;SDS011;28708;52.224;6.924;2023-05-29T04:03:37;29.00;;;5.30;;
43086;SDS011;28708;52.224;6.924;2023-05-29T04:06:03;22.50;;;3.70;;
43086;SDS011;28708;52.224;6.924;2023-05-29T04:08:29;27.33;;;4.37;;
43086;SDS011;28708;52.224;6.924;2023-05-29T04:10:54;23.43;;;4.00;;
43086;SDS011;28708;52.224;6.924;2023-05-29T04:13:21;21.57;;;4.00;;
43086;SDS011;28708;52.224;6.924;2023-05-29T04:15:47;21.90;;;3.60;;
43086;SDS011;28708;52.224;6.924;2023-05-29T04:18:13;23.30;;;3.67;;
43086;SDS011;28708;52.224;6.924;2023-05-29T04:20:39;21.53;;;4.30;;
43086;SDS011;28708;52.224;6.924;2023-05-29T04:23:06;17.07;;;3.10;;
43086;SDS011;28708;52.224;6.924;2023-05-29T04:25:32;26.47;;;4.67;;
43086;SDS011;28708;52.224;6.924;2023-05-29T04:27:59;20.03;;;4.20;;
43086;SDS011;28708;52.224;6.924;2023-05-29T04:30:27;22.43;;;4.23;;
43086;SDS011;28708;52.224;6.924;2023-05-29T04:32:53;25.20;;;4.53;;
43086;SDS011;28708;52.224;6.924;2023-05-29T04:35:21;21.53;;;3.57;;
43086;SDS011;28708;52.224;6.924;2023-05-29T04:37:56;23.57;;;4.20;;
43086;SDS011;28708;52.224;6.924;2023-05-29T04:40:24;27.30;;;4.30;;
43086;SDS011;28708;52.224;6.924;2023-05-29T04:42:51;23.90;;;3.40;;
43086;SDS011;28708;52.224;6.924;2023-05-29T04:45:19;16.60;;;3.17;;
43086;SDS011;28708;52.224;6.924;2023-05-29T04:47:46;25.17;;;4.50;;
43086;SDS011;28708;52.224;6.924;2023-05-29T04:50:12;24.57;;;4.13;;
43086;SDS011;28708;52.224;6.924;2023-05-29T04:52:40;22.63;;;3.53;;
43086;SDS011;28708;52.224;6.924;2023-05-29T04:55:08;23.37;;;4.10;;
43086;SDS011;28708;52.224;6.924;2023-05-29T04:57:35;26.30;;;4.13;;
43086;SDS011;28708;52.224;6.924;2023-05-29T05:00:01;27.07;;;4.10;;
43086;SDS011;28708;52.224;6.924;2023-05-29T05:02:32;20.20;;;4.17;;
43086;SDS011;28708;52.224;6.924;2023-05-29T05:04:58;21.70;;;4.00;;
43086;SDS011;28708;52.224;6.924;2023-05-29T05:07:24;21.60;;;4.00;;
43086;SDS011;28708;52.224;6.924;2023-05-29T05:09:51;24.57;;;3.90;;
43086;SDS011;28708;52.224;6.924;2023-05-29T05:12:20;17.17;;;3.45;;
43086;SDS011;28708;52.224;6.924;2023-05-29T05:14:46;22.67;;;3.73;;
43086;SDS011;28708;52.224;6.924;2023-05-29T05:17:12;20.57;;;3.50;;
43086;SDS011;28708;52.224;6.924;2023-05-29T05:19:37;19.70;;;3.90;;
43086;SDS011;28708;52.224;6.924;2023-05-29T05:22:03;18.70;;;3.80;;
43086;SDS011;28708;52.224;6.924;2023-05-29T05:24:29;19.93;;;4.50;;
43086;SDS011;28708;52.224;6.924;2023-05-29T05:26:56;20.83;;;4.07;;
43086;SDS011;28708;52.224;6.924;2023-05-29T05:29:22;20.30;;;4.13;;
43086;SDS011;28708;52.224;6.924;2023-05-29T05:31:48;21.97;;;3.90;;
43086;SDS011;28708;52.224;6.924;2023-05-29T05:34:13;23.27;;;4.27;;
43086;SDS011;28708;52.224;6.924;2023-05-29T05:36:42;23.30;;;4.07;;
43086;SDS011;28708;52.224;6.924;2023-05-29T05:39:12;18.00;;;3.50;;
43086;SDS011;28708;52.224;6.924;2023-05-29T05:41:38;19.70;;;3.53;;
43086;SDS011;28708;52.224;6.924;2023-05-29T05:44:04;18.10;;;3.33;;
43086;SDS011;28708;52.224;6.924;2023-05-29T05:46:52;21.70;;;4.03;;
43086;SDS011;28708;52.224;6.924;2023-05-29T05:49:19;19.37;;;2.70;;
43086;SDS011;28708;52.224;6.924;2023-05-29T05:51:45;23.90;;;4.13;;
43086;SDS011;28708;52.224;6.924;2023-05-29T05:54:11;21.40;;;3.57;;
43086;SDS011;28708;52.224;6.924;2023-05-29T05:56:37;22.07;;;3.43;;
43086;SDS011;28708;52.224;6.924;2023-05-29T05:59:03;17.23;;;3.20;;
43086;SDS011;28708;52.224;6.924;2023-05-29T06:01:29;19.77;;;3.67;;
43086;SDS011;28708;52.224;6.924;2023-05-29T06:03:54;16.47;;;3.23;;
43086;SDS011;28708;52.224;6.924;2023-05-29T06:06:22;21.70;;;4.53;;
43086;SDS011;28708;52.224;6.924;2023-05-29T06:08:48;20.70;;;3.83;;
43086;SDS011;28708;52.224;6.924;2023-05-29T06:11:15;15.43;;;3.40;;
43086;SDS011;28708;52.224;6.924;2023-05-29T06:13:43;18.97;;;3.53;;
43086;SDS011;28708;52.224;6.924;2023-05-29T06:16:16;20.93;;;3.20;;
43086;SDS011;28708;52.224;6.924;2023-05-29T06:18:41;17.80;;;3.43;;
43086;SDS011;28708;52.224;6.924;2023-05-29T06:21:07;18.37;;;3.63;;
43086;SDS011;28708;52.224;6.924;2023-05-29T06:23:35;18.87;;;3.50;;
43086;SDS011;28708;52.224;6.924;2023-05-29T06:26:02;19.13;;;3.73;;
43086;SDS011;28708;52.224;6.924;2023-05-29T06:28:28;19.97;;;3.93;;
43086;SDS011;28708;52.224;6.924;2023-05-29T06:30:55;24.57;;;3.80;;
43086;SDS011;28708;52.224;6.924;2023-05-29T06:33:22;20.90;;;3.70;;
43086;SDS011;28708;52.224;6.924;2023-05-29T06:35:49;16.60;;;3.13;;
43086;SDS011;28708;52.224;6.924;2023-05-29T06:38:14;18.53;;;3.30;;
43086;SDS011;28708;52.224;6.924;2023-05-29T06:40:40;25.40;;;3.33;;
43086;SDS011;28708;52.224;6.924;2023-05-29T06:43:06;17.77;;;3.17;;
43086;SDS011;28708;52.224;6.924;2023-05-29T06:45:37;16.70;;;3.37;;
43086;SDS011;28708;52.224;6.924;2023-05-29T06:48:03;21.37;;;3.80;;
43086;SDS011;28708;52.224;6.924;2023-05-29T06:50:29;14.00;;;2.80;;
43086;SDS011;28708;52.224;6.924;2023-05-29T06:53:00;17.90;;;3.47;;
43086;SDS011;28708;52.224;6.924;2023-05-29T06:57:57;21.00;;;3.30;;
43086;SDS011;28708;52.224;6.924;2023-05-29T07:00:24;13.83;;;2.90;;
43086;SDS011;28708;52.224;6.924;2023-05-29T07:03:03;16.13;;;3.10;;
43086;SDS011;28708;52.224;6.924;2023-05-29T07:05:29;17.50;;;3.13;;
43086;SDS011;28708;52.224;6.924;2023-05-29T07:07:55;13.20;;;2.83;;
43086;SDS011;28708;52.224;6.924;2023-05-29T07:10:21;17.33;;;3.53;;
43086;SDS011;28708;52.224;6.924;2023-05-29T07:12:46;14.97;;;3.03;;
43086;SDS011;28708;52.224;6.924;2023-05-29T07:15:12;13.03;;;2.93;;
43086;SDS011;28708;52.224;6.924;2023-05-29T07:17:39;15.47;;;3.07;;
43086;SDS011;28708;52.224;6.924;2023-05-29T07:20:14;17.03;;;3.10;;
43086;SDS011;28708;52.224;6.924;2023-05-29T07:22:40;17.77;;;2.97;;
43086;SDS011;28708;52.224;6.924;2023-05-29T07:25:06;18.80;;;3.20;;
43086;SDS011;28708;52.224;6.924;2023-05-29T07:27:33;12.90;;;2.80;;
43086;SDS011;28708;52.224;6.924;2023-05-29T07:30:01;18.77;;;3.33;;
43086;SDS011;28708;52.224;6.924;2023-05-29T07:32:27;15.57;;;3.17;;
43086;SDS011;28708;52.224;6.924;2023-05-29T07:34:52;14.93;;;2.60;;
43086;SDS011;28708;52.224;6.924;2023-05-29T07:37:20;17.13;;;2.87;;
43086;SDS011;28708;52.224;6.924;2023-05-29T07:39:46;14.53;;;3.07;;
43086;SDS011;28708;52.224;6.924;2023-05-29T07:42:32;16.20;;;2.80;;
43086;SDS011;28708;52.224;6.924;2023-05-29T07:44:58;13.07;;;3.10;;
43086;SDS011;28708;52.224;6.924;2023-05-29T07:47:24;15.73;;;3.00;;
43086;SDS011;28708;52.224;6.924;2023-05-29T07:49:50;19.60;;;3.53;;
43086;SDS011;28708;52.224;6.924;2023-05-29T07:52:18;14.20;;;3.33;;
43086;SDS011;28708;52.224;6.924;2023-05-29T07:54:44;23.07;;;3.70;;
43086;SDS011;28708;52.224;6.924;2023-05-29T07:57:11;15.23;;;2.40;;
43086;SDS011;28708;52.224;6.924;2023-05-29T07:59:42;12.83;;;2.77;;
43086;SDS011;28708;52.224;6.924;2023-05-29T08:02:09;17.42;;;2.80;;
43086;SDS011;28708;52.224;6.924;2023-05-29T08:05:12;16.37;;;3.00;;
43086;SDS011;28708;52.224;6.924;2023-05-29T08:07:39;14.93;;;2.87;;
43086;SDS011;28708;52.224;6.924;2023-05-29T08:10:04;13.87;;;3.17;;
43086;SDS011;28708;52.224;6.924;2023-05-29T08:12:31;17.10;;;2.67;;
43086;SDS011;28708;52.224;6.924;2023-05-29T08:14:59;16.80;;;3.17;;
43086;SDS011;28708;52.224;6.924;2023-05-29T08:17:24;14.00;;;2.57;;
43086;SDS011;28708;52.224;6.924;2023-05-29T08:19:50;15.07;;;2.57;;
43086;SDS011;28708;52.224;6.924;2023-05-29T08:22:16;15.17;;;2.80;;
43086;SDS011;28708;52.224;6.924;2023-05-29T08:24:41;11.73;;;2.47;;
43086;SDS011;28708;52.224;6.924;2023-05-29T08:27:07;15.47;;;2.73;;
43086;SDS011;28708;52.224;6.924;2023-05-29T08:29:33;16.70;;;2.90;;
43086;SDS011;28708;52.224;6.924;2023-05-29T08:31:59;12.67;;;2.83;;
43086;SDS011;28708;52.224;6.924;2023-05-29T08:34:24;14.10;;;2.53;;
43086;SDS011;28708;52.224;6.924;2023-05-29T08:36:50;15.17;;;2.80;;
43086;SDS011;28708;52.224;6.924;2023-05-29T08:39:16;12.70;;;2.63;;
43086;SDS011;28708;52.224;6.924;2023-05-29T08:44:30;12.82;;;2.53;;
43086;SDS011;28708;52.224;6.924;2023-05-29T08:46:57;8.77;;;2.22;;
43086;SDS011;28708;52.224;6.924;2023-05-29T08:49:27;10.98;;;2.17;;
43086;SDS011;28708;52.224;6.924;2023-05-29T08:52:14;10.48;;;2.70;;
43086;SDS011;28708;52.224;6.924;2023-05-29T08:54:41;11.50;;;2.30;;
43086;SDS011;28708;52.224;6.924;2023-05-29T08:57:08;13.68;;;2.85;;
43086;SDS011;28708;52.224;6.924;2023-05-29T08:59:35;10.20;;;2.40;;
43086;SDS011;28708;52.224;6.924;2023-05-29T09:02:04;10.98;;;2.60;;
43086;SDS011;28708;52.224;6.924;2023-05-29T09:04:30;12.00;;;2.50;;
43086;SDS011;28708;52.224;6.924;2023-05-29T09:06:57;14.18;;;2.80;;
43086;SDS011;28708;52.224;6.924;2023-05-29T09:09:23;13.30;;;2.75;;
43086;SDS011;28708;52.224;6.924;2023-05-29T09:11:52;13.82;;;3.05;;
43086;SDS011;28708;52.224;6.924;2023-05-29T09:14:34;11.98;;;2.65;;
43086;SDS011;28708;52.224;6.924;2023-05-29T09:17:02;9.23;;;2.35;;
43086;SDS011;28708;52.224;6.924;2023-05-29T09:19:29;11.65;;;2.53;;
43086;SDS011;28708;52.224;6.924;2023-05-29T09:22:05;12.77;;;2.88;;
43086;SDS011;28708;52.224;6.924;2023-05-29T09:24:35;9.18;;;2.50;;
43086;SDS011;28708;52.224;6.924;2023-05-29T09:27:02;10.18;;;2.70;;
43086;SDS011;28708;52.224;6.924;2023-05-29T09:29:44;10.65;;;2.40;;
43086;SDS011;28708;52.224;6.924;2023-05-29T09:32:15;11.00;;;2.40;;
43086;SDS011;28708;52.224;6.924;2023-05-29T09:34:42;12.95;;;2.97;;
43086;SDS011;28708;52.224;6.924;2023-05-29T09:37:09;11.40;;;2.78;;
43086;SDS011;28708;52.224;6.924;2023-05-29T09:42:16;11.80;;;2.58;;
43086;SDS011;28708;52.224;6.924;2023-05-29T09:44:52;13.43;;;3.03;;
43086;SDS011;28708;52.224;6.924;2023-05-29T09:47:18;12.43;;;3.00;;
43086;SDS011;28708;52.224;6.924;2023-05-29T09:49:44;11.18;;;2.65;;
43086;SDS011;28708;52.224;6.924;2023-05-29T09:52:14;14.63;;;2.53;;
43086;SDS011;28708;52.224;6.924;2023-05-29T09:54:45;12.80;;;3.08;;
43086;SDS011;28708;52.224;6.924;2023-05-29T09:57:14;11.48;;;2.65;;
43086;SDS011;28708;52.224;6.924;2023-05-29T09:59:45;11.93;;;2.85;;
43086;SDS011;28708;52.224;6.924;2023-05-29T10:02:13;18.25;;;3.60;;
43086;SDS011;28708;52.224;6.924;2023-05-29T10:04:40;12.90;;;2.90;;
43086;SDS011;28708;52.224;6.924;2023-05-29T10:07:10;12.88;;;2.80;;
43086;SDS011;28708;52.224;6.924;2023-05-29T10:09:44;12.77;;;3.22;;
43086;SDS011;28708;52.224;6.924;2023-05-29T10:12:13;10.43;;;2.92;;
43086;SDS011;28708;52.224;6.924;2023-05-29T10:14:40;12.10;;;2.80;;
43086;SDS011;28708;52.224;6.924;2023-05-29T10:17:08;14.27;;;2.75;;
43086;SDS011;28708;52.224;6.924;2023-05-29T10:19:37;13.23;;;2.88;;
43086;SDS011;28708;52.224;6.924;2023-05-29T10:22:04;12.40;;;2.78;;
43086;SDS011;28708;52.224;6.924;2023-05-29T10:24:33;12.30;;;2.75;;
43086;SDS011;28708;52.224;6.924;2023-05-29T10:27:02;12.45;;;3.30;;
43086;SDS011;28708;52.224;6.924;2023-05-29T10:29:31;13.98;;;2.92;;
43086;SDS011;28708;52.224;6.924;2023-05-29T10:34:36;11.63;;;2.63;;
43086;SDS011;28708;52.224;6.924;2023-05-29T10:37:21;15.13;;;3.17;;
43086;SDS011;28708;52.224;6.924;2023-05-29T10:40:10;8.60;;;2.78;;
43086;SDS011;28708;52.224;6.924;2023-05-29T10:42:49;12.25;;;3.08;;
43086;SDS011;28708;52.224;6.924;2023-05-29T10:50:39;13.05;;;3.15;;
43086;SDS011;28708;52.224;6.924;2023-05-29T10:53:25;11.77;;;2.92;;
43086;SDS011;28708;52.224;6.924;2023-05-29T10:55:53;14.70;;;3.75;;
43086;SDS011;28708;52.224;6.924;2023-05-29T10:58:21;10.82;;;2.78;;
43086;SDS011;28708;52.224;6.924;2023-05-29T11:00:49;15.32;;;3.00;;
43086;SDS011;28708;52.224;6.924;2023-05-29T11:03:22;12.95;;;3.55;;
43086;SDS011;28708;52.224;6.924;2023-05-29T11:06:00;13.10;;;3.63;;
43086;SDS011;28708;52.224;6.924;2023-05-29T11:08:41;14.98;;;3.42;;
43086;SDS011;28708;52.224;6.924;2023-05-29T11:11:15;10.45;;;3.13;;
43086;SDS011;28708;52.224;6.924;2023-05-29T11:13:54;11.27;;;3.22;;
43086;SDS011;28708;52.224;6.924;2023-05-29T11:18:55;12.27;;;2.80;;
43086;SDS011;28708;52.224;6.924;2023-05-29T11:24:34;15.68;;;3.30;;
43086;SDS011;28708;52.224;6.924;2023-05-29T11:27:02;10.57;;;2.75;;
43086;SDS011;28708;52.224;6.924;2023-05-29T11:29:31;16.23;;;3.47;;
43086;SDS011;28708;52.224;6.924;2023-05-29T11:32:06;11.60;;;2.73;;
43086;SDS011;28708;52.224;6.924;2023-05-29T11:34:37;12.33;;;2.93;;
43086;SDS011;28708;52.224;6.924;2023-05-29T11:37:05;15.98;;;2.90;;
43086;SDS011;28708;52.224;6.924;2023-05-29T11:39:31;13.30;;;3.03;;
43086;SDS011;28708;52.224;6.924;2023-05-29T11:44:27;12.23;;;2.60;;
43086;SDS011;28708;52.224;6.924;2023-05-29T11:47:02;13.37;;;3.23;;
43086;SDS011;28708;52.224;6.924;2023-05-29T11:49:30;11.97;;;2.70;;
43086;SDS011;28708;52.224;6.924;2023-05-29T11:52:08;12.37;;;2.70;;
43086;SDS011;28708;52.224;6.924;2023-05-29T11:54:40;11.80;;;3.13;;
43086;SDS011;28708;52.224;6.924;2023-05-29T11:57:18;12.23;;;2.87;;
43086;SDS011;28708;52.224;6.924;2023-05-29T11:59:45;14.33;;;3.50;;
43086;SDS011;28708;52.224;6.924;2023-05-29T12:02:10;13.93;;;3.17;;
43086;SDS011;28708;52.224;6.924;2023-05-29T12:04:36;11.90;;;3.10;;
43086;SDS011;28708;52.224;6.924;2023-05-29T12:07:02;12.40;;;3.13;;
43086;SDS011;28708;52.224;6.924;2023-05-29T12:09:42;12.20;;;3.00;;
43086;SDS011;28708;52.224;6.924;2023-05-29T12:12:08;14.17;;;2.83;;
43086;SDS011;28708;52.224;6.924;2023-05-29T12:14:33;16.33;;;3.40;;
43086;SDS011;28708;52.224;6.924;2023-05-29T12:16:59;10.83;;;2.63;;
43086;SDS011;28708;52.224;6.924;2023-05-29T12:19:25;12.93;;;2.97;;
43086;SDS011;28708;52.224;6.924;2023-05-29T12:21:50;11.23;;;3.00;;
43086;SDS011;28708;52.224;6.924;2023-05-29T12:24:18;14.83;;;2.90;;
43086;SDS011;28708;52.224;6.924;2023-05-29T12:26:44;11.40;;;2.90;;
43086;SDS011;28708;52.224;6.924;2023-05-29T12:29:12;12.07;;;3.10;;
43086;SDS011;28708;52.224;6.924;2023-05-29T12:31:37;14.67;;;3.23;;
43086;SDS011;28708;52.224;6.924;2023-05-29T12:34:11;11.23;;;2.73;;
43086;SDS011;28708;52.224;6.924;2023-05-29T12:36:40;11.40;;;3.17;;
43086;SDS011;28708;52.224;6.924;2023-05-29T12:39:08;12.20;;;2.80;;
43086;SDS011;28708;52.224;6.924;2023-05-29T12:41:34;15.17;;;3.30;;
43086;SDS011;28708;52.224;6.924;2023-05-29T12:44:02;10.03;;;2.67;;
43086;SDS011;28708;52.224;6.924;2023-05-29T12:46:34;13.27;;;3.00;;
43086;SDS011;28708;52.224;6.924;2023-05-29T12:49:11;10.17;;;2.80;;
43086;SDS011;28708;52.224;6.924;2023-05-29T12:51:41;16.27;;;3.00;;
43086;SDS011;28708;52.224;6.924;2023-05-29T12:54:10;12.73;;;3.13;;
43086;SDS011;28708;52.224;6.924;2023-05-29T12:56:37;11.77;;;2.87;;
43086;SDS011;28708;52.224;6.924;2023-05-29T12:59:08;13.60;;;2.90;;
43086;SDS011;28708;52.224;6.924;2023-05-29T13:01:35;13.43;;;3.15;;
43086;SDS011;28708;52.224;6.924;2023-05-29T13:04:03;12.40;;;3.10;;
43086;SDS011;28708;52.224;6.924;2023-05-29T13:06:42;16.53;;;3.30;;
43086;SDS011;28708;52.224;6.924;2023-05-29T13:09:08;10.50;;;3.03;;
43086;SDS011;28708;52.224;6.924;2023-05-29T13:11:33;12.87;;;3.00;;
43086;SDS011;28708;52.224;6.924;2023-05-29T13:13:59;15.07;;;2.77;;
43086;SDS011;28708;52.224;6.924;2023-05-29T13:16:25;12.67;;;3.30;;
43086;SDS011;28708;52.224;6.924;2023-05-29T13:18:50;12.97;;;3.03;;
43086;SDS011;28708;52.224;6.924;2023-05-29T13:21:16;12.50;;;2.93;;
43086;SDS011;28708;52.224;6.924;2023-05-29T13:23:42;13.60;;;3.37;;
43086;SDS011;28708;52.224;6.924;2023-05-29T13:26:07;15.53;;;3.13;;
43086;SDS011;28708;52.224;6.924;2023-05-29T13:28:33;14.40;;;3.27;;
43086;SDS011;28708;52.224;6.924;2023-05-29T13:31:02;13.10;;;3.07;;
43086;SDS011;28708;52.224;6.924;2023-05-29T13:33:28;16.33;;;3.27;;
43086;SDS011;28708;52.224;6.924;2023-05-29T13:35:56;14.33;;;3.23;;
43086;SDS011;28708;52.224;6.924;2023-05-29T13:38:24;12.65;;;3.58;;
43086;SDS011;28708;52.224;6.924;2023-05-29T13:40:50;14.53;;;2.90;;
43086;SDS011;28708;52.224;6.924;2023-05-29T13:43:16;11.43;;;3.03;;
43086;SDS011;28708;52.224;6.924;2023-05-29T13:45:41;15.97;;;3.17;;
43086;SDS011;28708;52.224;6.924;2023-05-29T13:48:07;10.87;;;2.70;;
43086;SDS011;28708;52.224;6.924;2023-05-29T13:50:33;13.33;;;3.20;;
43086;SDS011;28708;52.224;6.924;2023-05-29T13:52:58;15.80;;;3.27;;
43086;SDS011;28708;52.224;6.924;2023-05-29T13:55:25;13.13;;;3.23;;
43086;SDS011;28708;52.224;6.924;2023-05-29T13:57:51;14.40;;;3.10;;
43086;SDS011;28708;52.224;6.924;2023-05-29T14:00:18;11.30;;;3.43;;
43086;SDS011;28708;52.224;6.924;2023-05-29T14:02:44;8.88;;;2.97;;
43086;SDS011;28708;52.224;6.924;2023-05-29T14:05:09;11.67;;;2.60;;
43086;SDS011;28708;52.224;6.924;2023-05-29T14:07:36;12.47;;;2.87;;
43086;SDS011;28708;52.224;6.924;2023-05-29T14:10:02;11.35;;;2.58;;
43086;SDS011;28708;52.224;6.924;2023-05-29T14:12:31;20.73;;;4.53;;
43086;SDS011;28708;52.224;6.924;2023-05-29T14:15:00;12.10;;;2.63;;
43086;SDS011;28708;52.224;6.924;2023-05-29T14:17:25;9.70;;;2.70;;
43086;SDS011;28708;52.224;6.924;2023-05-29T14:19:51;13.10;;;2.80;;
43086;SDS011;28708;52.224;6.924;2023-05-29T14:22:17;13.23;;;2.80;;
43086;SDS011;28708;52.224;6.924;2023-05-29T14:24:43;12.23;;;2.77;;
43086;SDS011;28708;52.224;6.924;2023-05-29T14:27:08;13.60;;;3.60;;
43086;SDS011;28708;52.224;6.924;2023-05-29T14:29:34;12.77;;;2.60;;
43086;SDS011;28708;52.224;6.924;2023-05-29T14:32:00;16.83;;;3.03;;
43086;SDS011;28708;52.224;6.924;2023-05-29T14:34:25;14.07;;;2.73;;
43086;SDS011;28708;52.224;6.924;2023-05-29T14:36:51;12.50;;;2.70;;
43086;SDS011;28708;52.224;6.924;2023-05-29T14:39:17;15.40;;;3.40;;
43086;SDS011;28708;52.224;6.924;2023-05-29T14:41:43;15.03;;;3.00;;
43086;SDS011;28708;52.224;6.924;2023-05-29T14:44:08;14.57;;;3.33;;
43086;SDS011;28708;52.224;6.924;2023-05-29T14:46:36;16.33;;;3.07;;
43086;SDS011;28708;52.224;6.924;2023-05-29T14:49:02;11.37;;;2.70;;
43086;SDS011;28708;52.224;6.924;2023-05-29T14:51:27;14.63;;;3.10;;
43086;SDS011;28708;52.224;6.924;2023-05-29T14:53:53;13.60;;;2.97;;
43086;SDS011;28708;52.224;6.924;2023-05-29T14:56:19;10.80;;;2.50;;
43086;SDS011;28708;52.224;6.924;2023-05-29T14:58:45;14.73;;;2.60;;
43086;SDS011;28708;52.224;6.924;2023-05-29T15:01:13;11.33;;;2.70;;
43086;SDS011;28708;52.224;6.924;2023-05-29T15:03:40;14.37;;;2.80;;
43086;SDS011;28708;52.224;6.924;2023-05-29T15:06:05;11.53;;;2.83;;
43086;SDS011;28708;52.224;6.924;2023-05-29T15:08:31;15.17;;;2.60;;
43086;SDS011;28708;52.224;6.924;2023-05-29T15:11:00;14.33;;;2.90;;